Detall de PIREP

Printer-friendly versionPDF version

[2013/02/12 08:09:00]
Flight IATA:CT1005
Pilot Number:042
Company ICAO:CAT
Aircraft Type:B738/F
PAX:96
Departing Airport: EETN
Destination Airport: LEVC
Alternate Airport:LEPA
Online: VATSIM
Route:INTOR M857 TLL Q11 PIMEX P739 KOLJA N746 GORPI Z80 TILAV L87 PESEL UL87 TADUV T173 WEMAR UZ94 KOMIB UQ209 BALSI UQ212 NILDU UN975 BCN UM985 SOPET
Flight Level:F350
No Slew and time accel
No pause
Crash detect
Detect pilot in Cockpit between each 30 and 45 minutes
08:09 Zero fuel Weight: 115600 Lbs, Fuel Weight: 46053 Lbs
08:09 VATSIM:EETN 120750Z 06007KT 9999 OVC023 M03/M06 Q1023 R08/710195 NOSIG
08:09 VATSIM:LEVC 120800Z 26014KT 9999 FEW030 08/M04 Q1009 NOSIG
08:09 VOICE CATALONIAN/EU TOUR
08:15 Parking Brakes off
08:17 Take-off
08:17 Take off Weight: 161114 Lbs
08:17 Wind: 142º @ 008 Knots Heading: 092º
08:17 POS N59º 24´ 47´´ E024º 50´ 53´´
08:17 Gear Up: 182 Knots
08:17 Flaps:3 at 182 Knots
08:18 Flaps:2 at 174 Knots
08:19 Flaps:1 at 202 Knots
08:19 Flaps:0 at 214 Knots
08:32 Wind:187º@017 Knots Heading: 228º Ground Speed: 404 Knots Altitude 24671 ft
08:40 TOC
08:40 Fuel Weight: 41183 Lb
08:47 Wind:187º@022 Knots Heading: 223º Ground Speed: 419 Knots Altitude 35085 ft
09:02 Wind:195º@012 Knots Heading: 227º Ground Speed: 425 Knots Altitude 35144 ft
09:17 Wind:308º@011 Knots Heading: 212º Ground Speed: 434 Knots Altitude 35114 ft
09:32 Wind:314º@016 Knots Heading: 205º Ground Speed: 443 Knots Altitude 35055 ft
09:47 Wind:316º@030 Knots Heading: 208º Ground Speed: 464 Knots Altitude 35029 ft
10:02 Wind:320º@045 Knots Heading: 248º Ground Speed: 440 Knots Altitude 34921 ft
10:17 Wind:330º@057 Knots Heading: 220º Ground Speed: 459 Knots Altitude 34806 ft
10:32 Wind:330º@064 Knots Heading: 217º Ground Speed: 466 Knots Altitude 34747 ft
10:43 TOD
10:43 Fuel Weight: 29577 Lb
10:43 TOC
10:43 Fuel Weight: 29572 Lb
10:44 TOD
10:44 Fuel Weight: 29456 Lb
10:44 TOC
10:44 Fuel Weight: 29452 Lb
10:45 TOD
10:45 Fuel Weight: 29334 Lb
10:45 TOC
10:45 Fuel Weight: 29330 Lb
10:47 Wind:328º@071 Knots Heading: 216º Ground Speed: 472 Knots Altitude 34747 ft
11:02 Wind:316º@066 Knots Heading: 214º Ground Speed: 463 Knots Altitude 36778 ft
11:17 Wind:313º@065 Knots Heading: 213º Ground Speed: 459 Knots Altitude 36797 ft
11:32 Wind:301º@069 Knots Heading: 240º Ground Speed: 420 Knots Altitude 36837 ft
11:43 TOD
11:43 Fuel Weight: 24292 Lb
11:47 Wind:315º@056 Knots Heading: 235º Ground Speed: 418 Knots Altitude 27257 ft
12:00 Flaps:1 at 221 Knots
12:00 Flaps:2 at 220 Knots
12:01 Flaps:3 at 210 Knots
12:01 Flaps:4 at 186 Knots
12:02 Wind:267º@006 Knots Heading: 269º Ground Speed: 179 Knots Altitude 3024 ft
12:03 Gear Down: 162 Knots
12:03 Flaps:7 at 162 Knots
12:03 Flaps:8 at 161 Knots
12:07 TouchDown:Rate -229 ft/min Speed: 119 Knots
12:07 VATSIM:LEVC 121130Z 35004KT 290V080 9999 FEW030 15/M05 Q1012 NOSIG
12:07 Land
12:07 Wind:213º@005 Knots
12:07 Heading: 294º
12:07 Flight Duration: 03:50
12:07 Landing Weight: 138718 Lbs
12:07 POS N39º 29´ 19´´ W000º 28´ 48´´
12:09 CRASH
12:09 Parking brakes on
12:09 Block to Block Duration: 03:54
12:09 Final Fuel: 22927 Lbls
12:09 Spent Fuel: 23126 Lbls
12:09 Flight Length: 1521 NM
12:09 TOD Land Length: 118 NM
[2013/02/12 08:09:00]
Flight IATA:CT1005
Pilot Number:042
Company ICAO:CAT
Aircraft Type:B738/F
PAX:96
Departing Airport: EETN
Destination Airport: LEVC
Alternate Airport:LEPA
Online: VATSIM
Route:INTOR M857 TLL Q11 PIMEX P739 KOLJA N746 GORPI Z80 TILAV L87 PESEL UL87 TADUV T173 WEMAR UZ94 KOMIB UQ209 BALSIUQ212 NILDU UN975 BCN UM985 SOPET
Flight Level:F350
No Slew and time accel
No pause
Crash detect
Detect pilot in Cockpit between each 30 and 45 minutes
[2013/02/12 08:09:00]
Flight IATA:CT1005
Pilot Number:042
Company ICAO:CAT
Aircraft Type:B738/F
PAX:96
Departing Airport: EETN
Destination Airport: LEVC
Alternate Airport:LEPA
Online: VATSIM
Route:INTOR M857 TLL Q11 PIMEX P739 KOLJA N746 GORPI Z80 TILAV L87 PESEL UL87 TADUV T173 WEMAR UZ94 KOMIB UQ209 BALSI UQ212 NILDU UN975 BCN UM985 SOPET
Flight Level:F350
No Slew and time accel
No pause
Crash detect
Detect pilot in Cockpit between each 30 and 45 minutes
08:09 Zero fuel Weight: 115600 Lbs, Fuel Weight: 46053 Lbs
08:09 VATSIM:EETN 120750Z 06007KT 9999 OVC023 M03/M06 Q1023 R08/710195 NOSIG
08:09 VATSIM:LEVC 120800Z 26014KT 9999 FEW030 08/M04 Q1009 NOSIG
08:09 VOICE CATALONIAN/EU TOUR
08:15 Parking Brakes off
08:17 Take-off
08:17 Take off Weight: 161114 Lbs
08:17 Wind: 142º @ 008 Knots Heading: 092º
08:17 POS N59º 24´ 47´´ E024º 50´ 53´´
08:17 Gear Up: 182 Knots
08:17 Flaps:3 at 182 Knots
08:18 Flaps:2 at 174 Knots
08:19 Flaps:1 at 202 Knots
08:19 Flaps:0 at 214 Knots
08:32 Wind:187º@017 Knots Heading: 228º Ground Speed: 404 Knots Altitude 24671 ft
08:40 TOC
08:40 Fuel Weight: 41183 Lb
08:47 Wind:187º@022 Knots Heading: 223º Ground Speed: 419 Knots Altitude 35085 ft
09:02 Wind:195º@012 Knots Heading: 227º Ground Speed: 425 Knots Altitude 35144 ft
09:17 Wind:308º@011 Knots Heading: 212º Ground Speed: 434 Knots Altitude 35114 ft
09:32 Wind:314º@016 Knots Heading: 205º Ground Speed: 443 Knots Altitude 35055 ft
09:47 Wind:316º@030 Knots Heading: 208º Ground Speed: 464 Knots Altitude 35029 ft
10:02 Wind:320º@045 Knots Heading: 248º Ground Speed: 440 Knots Altitude 34921 ft
10:17 Wind:330º@057 Knots Heading: 220º Ground Speed: 459 Knots Altitude 34806 ft
10:32 Wind:330º@064 Knots Heading: 217º Ground Speed: 466 Knots Altitude 34747 ft
10:43 TOD
10:43 Fuel Weight: 29577 Lb
10:43 TOC
10:43 Fuel Weight: 29572 Lb
10:44 TOD
10:44 Fuel Weight: 29456 Lb
10:44 TOC
10:44 Fuel Weight: 29452 Lb
10:45 TOD
10:45 Fuel Weight: 29334 Lb
10:45 TOC
10:45 Fuel Weight: 29330 Lb
10:47 Wind:328º@071 Knots Heading: 216º Ground Speed: 472 Knots Altitude 34747 ft
11:02 Wind:316º@066 Knots Heading: 214º Ground Speed: 463 Knots Altitude 36778 ft
11:17 Wind:313º@065 Knots Heading: 213º Ground Speed: 459 Knots Altitude 36797 ft
11:32 Wind:301º@069 Knots Heading: 240º Ground Speed: 420 Knots Altitude 36837 ft
11:43 TOD
11:43 Fuel Weight: 24292 Lb
11:47 Wind:315º@056 Knots Heading: 235º Ground Speed: 418 Knots Altitude 27257 ft
12:00 Flaps:1 at 221 Knots
12:00 Flaps:2 at 220 Knots
12:01 Flaps:3 at 210 Knots
12:01 Flaps:4 at 186 Knots
12:02 Wind:267º@006 Knots Heading: 269º Ground Speed: 179 Knots Altitude 3024 ft
12:03 Gear Down: 162 Knots
12:03 Flaps:7 at 162 Knots
12:03 Flaps:8 at 161 Knots
12:07 TouchDown:Rate -229 ft/min Speed: 119 Knots
12:07 VATSIM:LEVC 121130Z 35004KT 290V080 9999 FEW030 15/M05 Q1012 NOSIG
12:07 Land
12:07 Wind:213º@005 Knots
12:07 Heading: 294º
12:07 Flight Duration: 03:50
12:07 Landing Weight: 138718 Lbs
12:07 POS N39º 29´ 19´´ W000º 28´ 48´´
12:09 CRASH
12:09 Parking brakes on
12:09 Block to Block Duration: 03:54
12:09 Final Fuel: 22927 Lbls
12:09 Spent Fuel: 23126 Lbls
12:09 Flight Length: 1521 NM
12:09 TOD Land Length: 118 NM

Exportar CSV

Powered by Drupal - Modified by Danger4k